Terminal Aerodrome Forecast
Issued by NWS

Home | Current Version | Previous Version | Text Only | Print | Product List | Glossary On
Versions: 1 2 3 4 5 6 7 8 9 10 11 12 13 14 15 16 17 18
000
FTUS42 KMLB 312042 AAA
TAFISM
TAF AMD
KISM 312042Z 3121/0118 14007KT P6SM VCTS SCT035CB SCT050 BKN250
      TEMPO 3121/3122 VRB15G28KT 2SM TSRA BKN025CB BKN080
     FM010000 16005KT P6SM VCSH SCT020 SCT050 BKN150
     FM011400 17005KT P6SM FEW015 SCT150 BKN250=

USA.gov is the U.S. government's official web portal to all federal, state and local government web resources and services.